Aérodrome :
LOGIN :

S'inscrire | Disclaimer

   EN    FR    IT 

 










Légende :    VFR   VFR Marginal   IFR   IFR Intensif   IFR Très Intensif
Visi : 
Plafond : 
>= 8 km
>= 3000ft
5 à 8 km
1000 à 3000 ft
1500m à 5 km
500 à 1000 ft
800 à 1500m
200 à 500 ft
< 800m
< 200 ft
Symboles :   Orages  Brouillard  Fortes neiges  Fortes précipitations  Vent > 20 kt
SIGMETs :   Divers  Orages  Givrage  Turbulence  Onde Orograph.  Cendres Volcan.







- Altitude de l'aérodrome : 39 ft
- Code IATA : CTA


LICC - Catania Fontanarossa

DERNIER METAR :
  • 252350Z 26009KT CAVOK 11/08 Q1012

METARs EXPIRÉS :
  • 252320Z 26008KT CAVOK 10/09 Q1012
  • 252250Z 27007KT CAVOK 10/09 Q1012
  • 252220Z 27009KT CAVOK 11/10 Q1012
  • 252150Z 26008KT CAVOK 11/09 Q1012
  • 252120Z 25008KT CAVOK 12/10 Q1012

TAF TAF LICC
Valide du 26 à 00h jusqu'au 27 à 00h UTC


252300Z 2600/2624 28010KT CAVOK
TEMPO 2612/2615 08010KT
Pas de NOTAMs connus pour ce terrain.
1 SIGMET publié pour la FIR Roma (LIRR) :
 
Turbulence forte
LIRR SIGMET 1 VALID 252300/260230 LIIB
LIRR ROMA FIR SEV TURB FCST N OF LINE N4122 E00937 - N4232 E01346 SFC/FL080 STNR NC=



MET'MAP, la Météo Aéronautique d'un coup d'oeil ! - Copyright ORBIFLY Décembre 2007 - Disclaimer

ORBIFLY MET'MAP TEAM :

Programmation & Développement : Alexandra Zaïnal
Conception & Développement : Baudouin d'Aumeries
Co-Programmation & Développement : Marc-Olivier Méhu
Soutien technique & logistique : Manuel Goepfert

Contact : metmap@orbifly.com




SOURCES & CREDITS :

   NOAA